Time;durP1;ratioP1;P1;durP2;ratioP2;P2;SDS_P1;SDS_P2;PMS_P1;PMS_P2;Temp;Humidity;BMP_temperature;BMP_pressure;BME280_temperature;BME280_humidity;BME280_pressure;Samples;Min_cycle;Max_cycle;Signal;HPM_P1;HPM_P2
2024/03/20 00:02:10;;;;;;;205.90;102.10;;;;;;;-0.77;77.13;99455.16;226993;1274;22595;-83
2024/03/20 00:07:15;;;;;;;191.70;98.80;;;;;;;-0.81;77.39;99446.77;227032;1274;22632;-83
2024/03/20 00:12:17;;;;;;;208.00;103.60;;;;;;;-0.84;77.55;99447.16;226822;1273;25234;-83
2024/03/20 00:17:19;;;;;;;194.70;100.20;;;;;;;-0.88;77.45;99448.64;227020;1273;22634;-82
2024/03/20 00:22:21;;;;;;;168.30;88.70;;;;;;;-0.92;77.78;99451.32;226956;1272;22555;-83
2024/03/20 00:27:23;;;;;;;165.70;83.60;;;;;;;-0.94;77.76;99453.02;226943;1274;22801;-82
2024/03/20 00:32:26;;;;;;;172.70;88.00;;;;;;;-0.96;78.11;99450.70;226989;1274;26621;-83
2024/03/20 00:37:30;;;;;;;162.20;83.10;;;;;;;-0.98;78.01;99448.61;227027;1274;22605;-82
2024/03/20 00:42:31;;;;;;;171.80;84.80;;;;;;;-1.01;78.29;99442.89;226909;1274;22588;-82
2024/03/20 00:47:34;;;;;;;159.30;79.60;;;;;;;-1.05;78.34;99434.87;227050;1273;22541;-82
2024/03/20 00:52:35;;;;;;;184.50;92.10;;;;;;;-1.10;77.99;99426.55;226996;1274;24208;-83
2024/03/20 00:57:49;;;;;;;179.40;92.60;;;;;;;-1.15;78.45;99411.27;226908;1274;22557;-83
2024/03/20 01:02:52;;;;;;;182.70;91.40;;;;;;;-1.18;78.49;99405.77;227026;1273;22542;-82
2024/03/20 01:07:54;;;;;;;179.90;88.70;;;;;;;-1.21;78.40;99404.11;226734;1274;22585;-82
2024/03/20 01:12:56;;;;;;;164.90;84.30;;;;;;;-1.25;78.55;99404.88;227026;1274;22614;-82
2024/03/20 01:17:57;;;;;;;162.30;81.00;;;;;;;-1.28;78.55;99399.52;227033;1274;22524;-83
2024/03/20 01:22:59;;;;;;;161.40;79.30;;;;;;;-1.31;78.88;99392.66;226959;1274;22557;-82
2024/03/20 01:28:01;;;;;;;145.70;75.00;;;;;;;-1.34;78.48;99389.19;227009;1270;25487;-83
2024/03/20 01:33:03;;;;;;;157.30;79.20;;;;;;;-1.37;78.96;99388.04;226897;1274;22576;-83
2024/03/20 01:38:05;;;;;;;162.80;83.90;;;;;;;-1.40;78.64;99394.63;226946;1257;22570;-82
2024/03/20 01:43:28;;;;;;;173.00;88.70;;;;;;;-1.44;78.97;99391.56;226942;1274;22764;-83
2024/03/20 01:48:31;;;;;;;186.30;89.20;;;;;;;-1.47;79.12;99389.54;226934;1275;22556;-83
2024/03/20 01:53:32;;;;;;;178.10;89.70;;;;;;;-1.49;79.10;99391.39;226958;1273;22549;-82
2024/03/20 01:58:34;;;;;;;173.50;87.80;;;;;;;-1.49;79.30;99400.00;227003;1275;25366;-83
2024/03/20 02:03:37;;;;;;;167.50;83.20;;;;;;;-1.50;79.44;99397.88;226948;1273;22521;-83
2024/03/20 02:08:38;;;;;;;160.40;83.20;;;;;;;-1.54;79.31;99396.91;226817;1273;22563;-83
2024/03/20 02:13:48;;;;;;;185.70;94.60;;;;;;;-1.59;79.23;99396.66;226972;1274;22553;-81
2024/03/20 02:18:51;;;;;;;175.60;93.10;;;;;;;-1.64;79.38;99393.43;227089;1273;22587;-82
2024/03/20 02:23:53;;;;;;;179.30;93.40;;;;;;;-1.71;79.30;99394.48;227002;1273;22538;-81
2024/03/20 02:28:55;;;;;;;191.30;103.90;;;;;;;-1.75;79.21;99397.02;226961;1274;22582;-82
2024/03/20 02:33:57;;;;;;;190.80;100.40;;;;;;;-1.80;79.47;99395.75;227051;1272;22560;-83
2024/03/20 02:38:59;;;;;;;187.00;95.00;;;;;;;-1.85;79.62;99390.89;227016;1274;23170;-83
2024/03/20 02:44:01;;;;;;;173.40;89.10;;;;;;;-1.88;79.53;99392.79;226417;1274;372541;-82
2024/03/20 02:49:03;;;;;;;165.10;84.70;;;;;;;-1.92;79.68;99390.78;226907;1269;25509;-82
2024/03/20 02:54:05;;;;;;;161.10;88.30;;;;;;;-1.96;79.72;99381.56;226989;1273;22539;-83
2024/03/20 02:59:07;;;;;;;177.00;92.60;;;;;;;-1.97;80.10;99381.26;226907;1274;22603;-83
2024/03/20 03:04:09;;;;;;;161.50;89.90;;;;;;;-1.96;80.16;99384.85;226964;1268;22589;-82
2024/03/20 03:09:16;;;;;;;196.80;103.70;;;;;;;-1.96;80.46;99381.26;226928;1274;22624;-82
2024/03/20 03:14:19;;;;;;;200.30;102.30;;;;;;;-1.98;80.48;99388.59;226969;1267;22569;-83
2024/03/20 03:19:21;;;;;;;184.80;100.50;;;;;;;-1.98;80.58;99393.81;227002;1274;22719;-82
2024/03/20 03:24:23;;;;;;;187.70;99.40;;;;;;;-2.01;80.72;99392.25;226826;1270;22550;-82
2024/03/20 03:29:25;;;;;;;180.20;93.90;;;;;;;-2.05;80.43;99390.56;226852;1273;22553;-83
2024/03/20 03:34:27;;;;;;;178.90;95.10;;;;;;;-2.08;80.87;99389.40;227016;1273;22559;-83
2024/03/20 03:39:29;;;;;;;179.50;91.90;;;;;;;-2.11;80.47;99387.34;226788;1269;22553;-83
2024/03/20 03:44:31;;;;;;;175.30;90.30;;;;;;;-2.14;80.61;99393.02;226808;1274;22732;-83
2024/03/20 03:49:34;;;;;;;172.80;89.40;;;;;;;-2.15;80.83;99398.07;226908;1273;22553;-83
2024/03/20 03:54:36;;;;;;;178.70;91.60;;;;;;;-2.16;81.08;99399.03;226839;1251;23024;-83
2024/03/20 03:59:38;;;;;;;154.50;78.00;;;;;;;-2.19;80.54;99394.19;227080;1273;22564;-83
2024/03/20 04:04:41;;;;;;;153.70;81.00;;;;;;;-2.21;80.89;99395.36;226969;1274;23186;-83
2024/03/20 04:09:43;;;;;;;155.60;79.00;;;;;;;-2.23;80.81;99392.02;226839;1274;23008;-82
2024/03/20 04:14:45;;;;;;;152.00;81.20;;;;;;;-2.26;81.05;99388.39;226832;1272;22566;-82
2024/03/20 04:19:47;;;;;;;171.30;84.40;;;;;;;-2.28;81.09;99389.74;226949;1270;22576;-82
2024/03/20 04:24:48;;;;;;;159.50;84.40;;;;;;;-2.32;80.77;99389.08;226991;1274;22796;-83
2024/03/20 04:29:51;;;;;;;152.90;77.90;;;;;;;-2.35;80.88;99389.14;226849;1273;22567;-83
2024/03/20 04:34:54;;;;;;;160.10;82.80;;;;;;;-2.35;81.01;99381.39;226981;1274;22535;-82
2024/03/20 04:39:56;;;;;;;158.60;86.30;;;;;;;-2.36;81.34;99380.04;227002;1273;22663;-83
2024/03/20 04:44:58;;;;;;;141.00;72.10;;;;;;;-2.36;81.43;99383.29;226983;1272;22539;-83
2024/03/20 04:50:00;;;;;;;123.60;68.30;;;;;;;-2.35;81.52;99378.25;226807;1270;22609;-81
2024/03/20 04:55:03;;;;;;;122.00;62.70;;;;;;;-2.34;81.56;99378.71;226966;1272;22724;-82
2024/03/20 05:00:16;;;;;;;125.40;64.60;;;;;;;-2.32;81.80;99385.13;227007;1270;22719;-81
2024/03/20 05:05:18;;;;;;;117.60;62.70;;;;;;;-2.28;81.45;99385.75;226852;1274;24225;-82
2024/03/20 05:10:20;;;;;;;119.80;62.20;;;;;;;-2.23;81.49;99382.54;226981;1269;23336;-82
2024/03/20 05:15:22;;;;;;;113.60;58.90;;;;;;;-2.17;81.38;99380.79;226922;1272;22568;-82
2024/03/20 05:20:24;;;;;;;114.00;63.10;;;;;;;-2.10;81.23;99384.15;226991;1268;22542;-82
2024/03/20 05:25:26;;;;;;;113.50;63.50;;;;;;;-2.03;81.48;99386.30;227018;1274;22549;-82
2024/03/20 05:30:28;;;;;;;118.40;62.10;;;;;;;-1.97;81.31;99380.92;227005;1273;22537;-82
2024/03/20 05:35:30;;;;;;;106.50;59.50;;;;;;;-1.90;81.38;99389.63;226864;1270;22566;-83
2024/03/20 05:40:32;;;;;;;110.40;59.80;;;;;;;-1.81;81.19;99393.05;226765;1274;22976;-82
2024/03/20 05:45:34;;;;;;;105.00;60.10;;;;;;;-1.69;81.07;99396.82;226980;1267;22539;-83
2024/03/20 05:50:36;;;;;;;101.60;58.80;;;;;;;-1.55;81.47;99400.23;226995;1273;22546;-83
2024/03/20 05:55:39;;;;;;;106.70;59.90;;;;;;;-1.39;81.64;99401.95;226925;1274;22569;-82
2024/03/20 06:00:43;;;;;;;105.30;59.80;;;;;;;-1.21;81.68;99406.88;227038;1273;24258;-83
2024/03/20 06:05:47;;;;;;;111.10;62.30;;;;;;;-1.03;81.64;99409.32;226772;1274;22599;-83
2024/03/20 06:10:51;;;;;;;106.80;59.80;;;;;;;-0.83;81.67;99408.84;226990;1270;22556;-83
2024/03/20 06:15:54;;;;;;;112.20;62.00;;;;;;;-0.61;81.63;99405.34;226885;1272;22574;-83
2024/03/20 06:20:56;;;;;;;110.90;61.70;;;;;;;-0.38;81.69;99411.37;227001;1273;22849;-83
2024/03/20 06:25:59;;;;;;;105.10;59.40;;;;;;;-0.11;81.45;99410.23;226982;1274;22569;-83
2024/03/20 06:31:01;;;;;;;96.40;58.70;;;;;;;0.16;81.53;99414.77;226803;1270;22547;-84
2024/03/20 06:36:03;;;;;;;105.50;60.90;;;;;;;0.38;81.31;99418.38;226923;1270;22534;-83
2024/03/20 06:41:05;;;;;;;110.90;64.50;;;;;;;0.61;81.09;99416.75;226813;1270;22699;-83
2024/03/20 06:46:07;;;;;;;112.80;63.30;;;;;;;0.86;81.20;99417.75;226891;1273;22585;-83
2024/03/20 06:51:10;;;;;;;113.80;65.90;;;;;;;1.12;81.10;99418.25;227017;1251;22629;-82
2024/03/20 06:56:12;;;;;;;77.10;45.70;;;;;;;1.39;81.05;99419.70;226930;1272;25500;-83
2024/03/20 07:01:13;;;;;;;70.10;40.80;;;;;;;1.67;81.06;99422.27;226731;1256;22551;-83
2024/03/20 07:06:15;;;;;;;69.40;40.50;;;;;;;1.94;80.52;99421.91;226797;1267;22564;-82
2024/03/20 07:11:17;;;;;;;67.40;40.10;;;;;;;2.17;79.79;99421.55;226830;1269;24265;-83
2024/03/20 07:16:19;;;;;;;65.00;37.40;;;;;;;2.37;79.60;99422.23;226487;1265;22546;-80
2024/03/20 07:21:22;;;;;;;58.60;34.70;;;;;;;2.58;79.54;99423.34;226546;1273;22569;-83
2024/03/20 07:26:24;;;;;;;62.10;35.90;;;;;;;2.81;79.04;99430.86;226336;1266;23177;-82
2024/03/20 07:31:26;;;;;;;51.10;29.70;;;;;;;3.05;78.75;99423.56;226313;1263;25360;-82
2024/03/20 07:36:28;;;;;;;62.30;36.40;;;;;;;3.27;78.47;99419.45;226257;1251;22551;-80
2024/03/20 07:41:31;;;;;;;66.70;36.40;;;;;;;3.48;78.01;99423.10;226381;1252;22656;-82
2024/03/20 07:46:32;;;;;;;60.20;35.70;;;;;;;3.69;77.40;99418.24;226509;1259;23640;-81
2024/03/20 07:51:34;;;;;;;69.10;38.50;;;;;;;3.90;77.08;99415.05;226783;1272;22579;-82
2024/03/20 07:56:36;;;;;;;58.90;35.20;;;;;;;4.11;77.06;99408.66;226764;1271;25389;-82
2024/03/20 08:01:40;;;;;;;54.50;31.50;;;;;;;4.35;76.74;99408.04;226847;1271;22550;-82
2024/03/20 08:06:42;;;;;;;52.10;31.80;;;;;;;4.55;76.02;99398.73;226867;1262;22546;-83
2024/03/20 08:11:44;;;;;;;49.90;31.00;;;;;;;4.78;75.94;99392.19;226853;1267;22538;-82
2024/03/20 08:16:47;;;;;;;50.60;31.80;;;;;;;5.06;75.64;99387.40;226830;1269;22562;-81
2024/03/20 08:21:49;;;;;;;49.90;29.80;;;;;;;5.34;75.34;99384.13;226648;1260;22542;-83
2024/03/20 08:26:51;;;;;;;45.00;28.30;;;;;;;5.64;75.04;99385.76;226787;1251;25869;-83
2024/03/20 08:31:53;;;;;;;38.40;25.30;;;;;;;5.90;74.35;99388.73;226814;1259;22534;-83
2024/03/20 08:36:55;;;;;;;39.50;25.30;;;;;;;6.06;73.01;99395.29;226665;1267;22538;-83
2024/03/20 08:41:57;;;;;;;39.00;23.50;;;;;;;6.22;72.56;99400.96;226724;1270;22588;-83
2024/03/20 08:47:00;;;;;;;36.10;23.40;;;;;;;6.42;72.75;99402.70;226820;1271;22564;-83
2024/03/20 08:52:02;;;;;;;37.60;24.20;;;;;;;6.68;72.51;99400.42;226672;1272;22545;-83
2024/03/20 08:57:04;;;;;;;35.40;23.60;;;;;;;6.89;71.52;99400.64;226603;1262;25431;-82
2024/03/20 09:02:08;;;;;;;35.90;23.30;;;;;;;7.11;71.58;99401.21;226621;1272;22531;-82
2024/03/20 09:07:10;;;;;;;33.40;22.40;;;;;;;7.34;71.23;99402.95;226731;1259;22539;-83
2024/03/20 09:12:12;;;;;;;31.20;21.00;;;;;;;7.52;70.56;99398.54;226636;1266;22559;-82
2024/03/20 09:17:14;;;;;;;28.10;20.10;;;;;;;7.75;70.21;99397.64;226293;1270;24239;-83
2024/03/20 09:22:16;;;;;;;50.00;34.80;;;;;;;7.96;69.56;99389.70;226073;1270;22680;-82
2024/03/20 09:27:20;;;;;;;28.60;19.70;;;;;;;8.11;69.08;99387.25;226110;1269;22990;-82
2024/03/20 09:32:21;;;;;;;27.60;19.40;;;;;;;8.23;68.28;99387.10;226429;1271;22554;-83
2024/03/20 09:37:25;;;;;;;27.00;18.00;;;;;;;8.18;66.43;99386.51;226930;1271;25474;-84
2024/03/20 09:42:28;;;;;;;26.10;17.80;;;;;;;8.18;66.01;99385.63;226820;1270;22726;-84
2024/03/20 09:47:32;;;;;;;26.90;17.90;;;;;;;8.26;66.20;99378.73;226589;1267;22556;-84
2024/03/20 09:52:35;;;;;;;24.40;17.70;;;;;;;8.43;66.17;99373.63;226599;1270;22589;-84
2024/03/20 09:57:41;;;;;;;22.70;16.80;;;;;;;8.63;65.70;99367.99;226556;1259;22949;-84
2024/03/20 10:02:48;;;;;;;24.30;17.40;;;;;;;8.79;64.75;99359.29;226688;1253;22536;-84
2024/03/20 10:07:51;;;;;;;24.00;16.00;;;;;;;8.90;64.51;99349.13;226318;1268;26239;-83
2024/03/20 10:12:54;;;;;;;25.60;16.20;;;;;;;9.13;65.07;99337.90;226133;1269;22932;-81
2024/03/20 10:17:57;;;;;;;22.00;15.20;;;;;;;9.36;64.17;99330.08;226234;1270;22603;-83
2024/03/20 10:23:00;;;;;;;21.60;15.80;;;;;;;9.52;62.88;99331.80;226440;1259;22543;-81
2024/03/20 10:28:03;;;;;;;21.60;15.00;;;;;;;9.62;61.87;99332.02;226470;1255;23048;-85
2024/03/20 10:33:13;;;;;;;20.30;14.80;;;;;;;9.81;62.29;99336.39;226335;1266;22964;-84
2024/03/20 10:38:18;;;;;;;19.70;14.50;;;;;;;10.01;62.36;99319.41;226800;1262;24278;-85
2024/03/20 10:43:24;;;;;;;18.40;13.00;;;;;;;10.18;61.95;99319.04;226721;1273;23039;-85
2024/03/20 10:48:27;;;;;;;19.20;14.60;;;;;;;10.31;60.64;99312.92;226567;1269;22549;-81
2024/03/20 10:53:30;;;;;;;19.60;13.70;;;;;;;10.37;60.76;99309.52;226622;1263;22579;-82
2024/03/20 10:58:33;;;;;;;19.30;14.00;;;;;;;10.60;61.04;99300.73;226624;1259;22566;-82
2024/03/20 11:03:38;;;;;;;18.20;13.20;;;;;;;10.82;60.52;99290.94;226598;1255;22544;-83
2024/03/20 11:08:53;;;;;;;17.70;13.90;;;;;;;11.02;59.42;99291.60;226455;1252;22541;-83
2024/03/20 11:14:02;;;;;;;17.80;12.50;;;;;;;11.17;58.59;99285.41;226318;1273;23045;-83
2024/03/20 11:19:09;;;;;;;17.30;12.70;;;;;;;11.21;57.26;99275.46;226327;1259;22610;-82
2024/03/20 11:24:11;;;;;;;19.00;12.80;;;;;;;11.27;56.68;99272.30;226414;1272;22547;-83
2024/03/20 11:29:13;;;;;;;18.10;13.60;;;;;;;11.48;57.35;99273.84;226310;1270;22548;-83
2024/03/20 11:34:14;;;;;;;17.70;12.20;;;;;;;11.66;56.52;99272.09;226510;1269;22545;-81
2024/03/20 11:39:17;;;;;;;18.50;13.80;;;;;;;11.79;55.80;99264.69;226745;1270;22556;-84
2024/03/20 11:44:18;;;;;;;18.00;13.30;;;;;;;11.83;55.36;99266.38;226600;1253;22576;-81
2024/03/20 11:49:30;;;;;;;17.10;13.70;;;;;;;11.88;54.88;99264.97;226569;1259;22548;-81
2024/03/20 11:54:32;;;;;;;17.80;12.80;;;;;;;11.99;55.70;99261.16;226698;1274;22551;-82
2024/03/20 11:59:35;;;;;;;15.70;11.50;;;;;;;12.23;55.78;99261.48;226576;1267;22757;-79
2024/03/20 12:04:36;;;;;;;17.90;12.10;;;;;;;12.39;55.15;99256.52;226524;1260;22667;-80
2024/03/20 12:09:38;;;;;;;17.30;12.50;;;;;;;12.46;54.43;99247.14;226566;1270;22558;-81
2024/03/20 12:14:40;;;;;;;17.20;12.80;;;;;;;12.47;54.08;99241.56;226704;1270;22562;-81
2024/03/20 12:19:42;;;;;;;15.80;12.50;;;;;;;12.66;55.09;99236.40;226474;1274;23004;-80
2024/03/20 12:24:44;;;;;;;17.00;12.20;;;;;;;12.79;53.76;99233.33;226393;1269;22462;-81
2024/03/20 12:29:51;;;;;;;14.30;11.30;;;;;;;12.84;53.58;99226.81;226377;1260;22557;-81
2024/03/20 12:34:53;;;;;;;14.80;11.70;;;;;;;12.87;52.92;99223.45;226613;1266;22579;-81
2024/03/20 12:39:56;;;;;;;16.50;10.30;;;;;;;12.95;53.10;99215.31;226655;1259;22554;-84
2024/03/20 12:44:59;;;;;;;15.70;11.10;;;;;;;12.98;51.58;99217.25;226681;1269;22556;-82
2024/03/20 12:50:02;;;;;;;15.00;12.10;;;;;;;12.98;51.80;99215.91;226693;1260;22577;-81
2024/03/20 12:55:08;;;;;;;14.50;11.90;;;;;;;13.01;52.08;99214.42;226772;1274;22564;-81
2024/03/20 13:00:11;;;;;;;48.90;36.00;;;;;;;13.03;51.69;99209.27;226615;1254;22574;-84
2024/03/20 13:05:17;;;;;;;15.30;13.10;;;;;;;13.06;52.02;99206.70;226658;1257;22906;-82
2024/03/20 13:10:19;;;;;;;19.00;14.00;;;;;;;13.18;52.06;99197.44;226715;1252;22550;-82
2024/03/20 13:15:24;;;;;;;15.40;11.90;;;;;;;13.20;51.78;99199.31;226565;1264;22551;-82
2024/03/20 13:20:27;;;;;;;16.80;13.10;;;;;;;13.20;51.87;99196.34;226744;1255;22542;-78
2024/03/20 13:25:32;;;;;;;13.40;10.80;;;;;;;13.35;52.43;99190.84;226593;1272;25296;-83
2024/03/20 13:30:34;;;;;;;15.30;12.40;;;;;;;13.44;51.66;99183.70;226920;1271;22560;-83
2024/03/20 13:35:36;;;;;;;15.70;12.20;;;;;;;13.53;52.04;99178.52;227104;1268;22569;-83
2024/03/20 13:40:42;;;;;;;15.70;12.50;;;;;;;13.64;51.40;99180.23;226823;1267;22748;-84
2024/03/20 13:45:56;;;;;;;16.90;12.60;;;;;;;13.64;51.28;99175.98;226682;1270;22542;-82
2024/03/20 13:50:58;;;;;;;29.70;24.00;;;;;;;13.66;51.67;99172.30;226662;1272;22554;-83
2024/03/20 13:56:00;;;;;;;17.40;14.40;;;;;;;13.72;51.91;99173.53;226578;1274;23555;-83
2024/03/20 14:01:02;;;;;;;15.00;11.30;;;;;;;13.81;51.83;99166.41;226548;1259;22538;-83
2024/03/20 14:06:05;;;;;;;13.00;9.50;;;;;;;13.87;50.97;99173.10;226599;1272;25447;-81
2024/03/20 14:11:08;;;;;;;11.60;8.40;;;;;;;13.88;50.12;99171.26;226738;1271;22548;-80
2024/03/20 14:16:17;;;;;;;9.40;8.30;;;;;;;13.85;49.63;99168.70;226743;1268;22546;-81
2024/03/20 14:21:20;;;;;;;;;;;;;;;13.77;49.42;99167.31;226567;1264;26439;-81
2024/03/20 14:26:23;;;;;;;9.20;8.10;;;;;;;13.79;49.55;99160.30;226630;1260;22595;-81
2024/03/20 14:31:25;;;;;;;8.80;7.10;;;;;;;13.83;49.63;99154.52;226598;1253;24221;-81
2024/03/20 14:36:27;;;;;;;10.60;7.80;;;;;;;13.87;49.45;99148.54;226443;1271;25975;-80
2024/03/20 14:41:30;;;;;;;28.20;22.50;;;;;;;13.89;48.63;99148.34;225991;1272;288068;-79
2024/03/20 14:46:32;;;;;;;7.80;6.90;;;;;;;13.81;47.98;99147.08;226221;1272;22609;-81
2024/03/20 14:51:37;;;;;;;6.00;5.20;;;;;;;13.73;47.14;99148.04;226280;1259;22564;-78
2024/03/20 14:56:43;;;;;;;6.70;5.50;;;;;;;13.67;46.88;99147.92;226226;1268;22587;-77
2024/03/20 15:01:45;;;;;;;6.30;4.50;;;;;;;13.67;46.59;99151.36;226512;1266;22683;-80
2024/03/20 15:06:47;;;;;;;7.10;4.90;;;;;;;13.55;46.23;99148.79;226508;1263;22549;-80
2024/03/20 15:11:49;;;;;;;6.80;4.30;;;;;;;13.43;45.83;99142.28;226392;1273;22589;-79
2024/03/20 15:16:51;;;;;;;5.10;4.20;;;;;;;13.34;45.22;99141.99;226729;1266;24260;-80
2024/03/20 15:21:53;;;;;;;5.30;4.60;;;;;;;13.20;44.46;99137.83;226799;1272;22894;-79
2024/03/20 15:26:55;;;;;;;9.20;5.10;;;;;;;13.08;44.76;99139.44;226646;1272;22645;-79
2024/03/20 15:31:58;;;;;;;6.40;5.30;;;;;;;13.01;44.62;99139.22;226623;1269;22723;-78
2024/03/20 15:37:00;;;;;;;9.50;5.80;;;;;;;12.90;44.72;99139.10;226820;1272;22527;-79
2024/03/20 15:42:02;;;;;;;8.50;5.80;;;;;;;12.77;44.73;99141.62;226798;1272;22541;-79
2024/03/20 15:47:06;;;;;;;9.00;6.40;;;;;;;12.62;45.28;99140.11;226970;1269;25250;-80
2024/03/20 15:52:09;;;;;;;8.50;6.10;;;;;;;12.49;45.54;99142.73;226903;1273;22527;-79
2024/03/20 15:57:12;;;;;;;9.40;6.30;;;;;;;12.34;45.42;99142.95;226906;1272;22635;-80
2024/03/20 16:02:18;;;;;;;7.80;6.30;;;;;;;12.14;44.49;99145.64;226923;1272;22553;-80
2024/03/20 16:07:20;;;;;;;8.60;6.90;;;;;;;11.95;44.72;99150.33;226829;1267;22945;-80
2024/03/20 16:12:24;;;;;;;8.20;7.10;;;;;;;11.78;45.04;99153.52;226901;1272;22535;-80
2024/03/20 16:17:27;;;;;;;13.20;7.40;;;;;;;11.61;45.60;99155.53;226817;1272;22541;-80
2024/03/20 16:22:29;;;;;;;10.70;8.00;;;;;;;11.46;45.44;99157.99;226861;1267;22557;-80
2024/03/20 16:27:31;;;;;;;10.90;8.20;;;;;;;11.33;46.18;99162.71;226928;1272;23042;-81
2024/03/20 16:32:34;;;;;;;12.10;8.30;;;;;;;11.21;46.54;99161.40;226866;1272;22611;-81
2024/03/20 16:37:35;;;;;;;13.90;9.20;;;;;;;11.09;47.06;99165.02;226822;1272;24884;-80
2024/03/20 16:42:39;;;;;;;14.70;9.20;;;;;;;10.97;47.57;99163.26;226878;1273;22498;-81
2024/03/20 16:47:41;;;;;;;13.40;9.20;;;;;;;10.83;47.92;99164.48;226882;1272;22526;-80
2024/03/20 16:52:43;;;;;;;15.00;10.30;;;;;;;10.70;48.23;99160.40;226887;1272;24261;-80
2024/03/20 16:57:44;;;;;;;16.10;10.50;;;;;;;10.57;48.56;99165.77;226746;1272;22588;-79
2024/03/20 17:02:46;;;;;;;15.20;10.40;;;;;;;10.45;49.00;99169.71;226728;1272;23754;-80
2024/03/20 17:07:48;;;;;;;18.20;12.10;;;;;;;10.31;49.43;99170.73;226799;1269;22535;-81
2024/03/20 17:12:50;;;;;;;16.30;10.60;;;;;;;10.17;50.12;99171.77;226884;1272;22549;-80
2024/03/20 17:17:52;;;;;;;14.30;8.70;;;;;;;10.05;50.37;99170.35;226841;1272;22660;-81
2024/03/20 17:22:57;;;;;;;13.60;8.70;;;;;;;9.93;50.78;99174.73;226987;1271;22553;-81
2024/03/20 17:27:59;;;;;;;13.80;8.60;;;;;;;9.81;51.04;99177.65;226875;1272;22538;-81
2024/03/20 17:33:01;;;;;;;18.10;8.50;;;;;;;9.68;51.43;99174.46;226806;1272;22980;-81
2024/03/20 17:38:02;;;;;;;17.40;8.70;;;;;;;9.53;51.70;99174.77;226931;1272;22570;-81
2024/03/20 17:43:05;;;;;;;17.80;9.50;;;;;;;9.37;51.88;99168.10;226918;1272;22542;-81
2024/03/20 17:48:07;;;;;;;17.70;9.40;;;;;;;9.20;52.19;99164.34;226878;1272;22675;-81
2024/03/20 17:53:09;;;;;;;14.40;8.70;;;;;;;9.05;52.41;99168.86;226701;1272;22555;-81
2024/03/20 17:58:11;;;;;;;17.40;9.80;;;;;;;8.90;52.74;99171.39;226782;1270;22546;-81
2024/03/20 18:03:13;;;;;;;17.80;10.90;;;;;;;8.76;53.04;99176.78;226895;1272;22641;-81
2024/03/20 18:08:15;;;;;;;20.10;12.10;;;;;;;8.62;53.02;99177.36;226791;1269;22535;-81
2024/03/20 18:13:17;;;;;;;22.60;15.10;;;;;;;8.51;53.25;99182.45;226860;1269;22538;-82
2024/03/20 18:18:19;;;;;;;27.30;16.90;;;;;;;8.41;53.31;99184.77;226773;1272;22546;-81
2024/03/20 18:23:21;;;;;;;25.80;16.70;;;;;;;8.31;53.64;99183.33;226883;1272;22618;-81
2024/03/20 18:28:24;;;;;;;25.10;14.50;;;;;;;8.23;53.47;99188.14;226808;1272;22548;-81
2024/03/20 18:33:27;;;;;;;26.60;16.40;;;;;;;8.17;53.28;99191.42;226921;1272;22542;-81
2024/03/20 18:38:29;;;;;;;27.60;17.40;;;;;;;8.12;53.13;99198.53;226952;1272;22538;-82
2024/03/20 18:43:31;;;;;;;30.00;20.00;;;;;;;8.06;53.42;99193.38;226908;1272;23412;-81
2024/03/20 18:48:33;;;;;;;31.50;18.90;;;;;;;7.96;53.53;99197.05;226922;1272;22550;-81
2024/03/20 18:53:36;;;;;;;32.30;19.60;;;;;;;7.85;53.73;99201.76;226972;1272;22557;-80
2024/03/20 18:58:40;;;;;;;36.80;22.70;;;;;;;7.72;54.08;99203.98;226895;1255;22515;-81
2024/03/20 19:03:42;;;;;;;39.20;22.70;;;;;;;7.61;54.01;99205.55;226915;1272;22537;-81
2024/03/20 19:08:44;;;;;;;44.00;23.50;;;;;;;7.47;54.88;99205.42;226891;1272;22544;-82
2024/03/20 19:13:46;;;;;;;36.60;23.00;;;;;;;7.33;54.82;99203.64;226862;1273;22529;-82
2024/03/20 19:18:48;;;;;;;39.70;22.90;;;;;;;7.21;55.24;99205.45;226947;1273;22576;-82
2024/03/20 19:23:50;;;;;;;35.70;21.20;;;;;;;7.08;55.66;99208.34;226872;1273;22570;-82
2024/03/20 19:28:53;;;;;;;41.00;23.60;;;;;;;6.95;55.89;99208.23;226852;1272;22565;-82
2024/03/20 19:33:55;;;;;;;38.00;23.10;;;;;;;6.85;56.86;99206.33;226936;1272;22552;-81
2024/03/20 19:38:56;;;;;;;60.20;36.90;;;;;;;6.75;57.22;99210.30;226844;1272;22608;-83
2024/03/20 19:43:58;;;;;;;79.40;45.50;;;;;;;6.65;57.13;99215.52;226779;1272;22538;-82
2024/03/20 19:49:00;;;;;;;68.10;40.40;;;;;;;6.55;57.81;99220.30;226954;1272;22543;-82
2024/03/20 19:54:03;;;;;;;78.60;44.70;;;;;;;6.46;57.95;99220.00;226612;1272;22556;-83
2024/03/20 19:59:05;;;;;;;82.80;46.00;;;;;;;6.36;57.92;99220.98;226920;1271;22550;-82
2024/03/20 20:04:10;;;;;;;75.00;43.00;;;;;;;6.27;58.29;99224.70;226951;1269;22549;-81
2024/03/20 20:09:12;;;;;;;63.80;35.30;;;;;;;6.17;58.60;99222.32;226933;1272;22558;-84
2024/03/20 20:14:15;;;;;;;66.90;39.40;;;;;;;6.08;59.37;99224.59;226834;1272;22577;-83
2024/03/20 20:19:18;;;;;;;61.80;35.40;;;;;;;5.98;59.79;99228.15;226917;1263;22545;-82
2024/03/20 20:24:20;;;;;;;65.20;38.40;;;;;;;5.90;60.31;99228.30;226813;1272;23632;-82
2024/03/20 20:29:22;;;;;;;68.10;38.20;;;;;;;5.82;60.45;99233.05;226743;1272;22552;-81
2024/03/20 20:34:24;;;;;;;61.80;37.10;;;;;;;5.75;60.73;99224.48;226831;1272;22545;-82
2024/03/20 20:39:27;;;;;;;74.00;40.80;;;;;;;5.68;60.89;99222.28;226925;1272;22563;-82
2024/03/20 20:44:29;;;;;;;68.20;37.80;;;;;;;5.64;61.41;99222.03;226827;1269;23627;-83
2024/03/20 20:49:30;;;;;;;68.60;41.00;;;;;;;5.60;61.54;99217.52;226840;1269;25435;-81
2024/03/20 20:54:33;;;;;;;78.60;42.10;;;;;;;5.57;61.64;99212.91;226862;1272;25407;-82
2024/03/20 20:59:36;;;;;;;76.10;42.00;;;;;;;5.55;61.80;99216.55;226973;1272;22555;-82
2024/03/20 21:20:40;;;;;;;80.70;42.70;;;;;;;5.36;63.73;99213.30;226845;1272;22542;-85
2024/03/20 21:25:42;;;;;;;80.00;41.80;;;;;;;5.29;64.00;99216.26;226850;1272;22541;-83
2024/03/20 21:30:44;;;;;;;82.60;43.00;;;;;;;5.23;64.71;99215.58;226815;1272;22547;-82
2024/03/20 21:35:45;;;;;;;78.20;41.20;;;;;;;5.18;64.82;99214.15;226820;1270;24323;-82
2024/03/20 21:40:48;;;;;;;99.10;49.70;;;;;;;5.15;65.14;99213.02;226910;1273;22539;-84
2024/03/20 21:45:51;;;;;;;105.20;53.30;;;;;;;5.12;64.81;99212.07;226721;1272;22574;-83
2024/03/20 21:50:53;;;;;;;132.30;65.10;;;;;;;5.09;64.94;99218.80;226941;1272;25352;-84
2024/03/20 21:55:59;;;;;;;126.90;65.60;;;;;;;5.06;64.72;99222.38;226902;1272;22542;-83
2024/03/20 22:01:01;;;;;;;142.40;66.90;;;;;;;5.02;64.90;99220.89;226828;1272;22542;-82
2024/03/20 22:06:07;;;;;;;136.30;65.60;;;;;;;4.97;64.98;99217.17;226837;1273;22556;-82
2024/03/20 22:11:09;;;;;;;117.00;55.40;;;;;;;4.90;65.17;99216.89;226998;1267;22559;-83
2024/03/20 22:16:11;;;;;;;105.90;53.90;;;;;;;4.84;65.44;99217.84;226843;1272;22541;-81
2024/03/20 22:21:14;;;;;;;97.40;50.40;;;;;;;4.77;65.91;99216.89;226927;1272;22542;-82
2024/03/20 22:26:15;;;;;;;97.00;48.70;;;;;;;4.70;66.00;99221.04;226905;1273;22582;-83
2024/03/20 22:31:19;;;;;;;91.40;49.10;;;;;;;4.63;66.29;99218.72;226864;1272;22547;-80
2024/03/20 22:36:21;;;;;;;111.60;53.70;;;;;;;4.54;66.45;99214.61;226763;1272;22561;-81
2024/03/20 22:41:23;;;;;;;104.70;53.20;;;;;;;4.46;66.18;99211.19;226862;1272;22962;-81
2024/03/20 22:46:27;;;;;;;101.80;53.90;;;;;;;4.39;66.43;99207.67;226996;1272;25266;-82
2024/03/20 22:51:29;;;;;;;101.50;52.70;;;;;;;4.33;67.00;99207.00;226878;1273;22565;-82
2024/03/20 22:56:31;;;;;;;120.20;58.50;;;;;;;4.27;67.01;99202.64;226784;1257;22553;-82
2024/03/20 23:01:33;;;;;;;144.10;68.00;;;;;;;4.22;67.07;99196.98;226864;1270;22541;-82
2024/03/20 23:06:35;;;;;;;165.60;74.70;;;;;;;4.16;67.10;99193.46;226995;1273;25240;-81
2024/03/20 23:11:37;;;;;;;161.00;72.30;;;;;;;4.12;67.13;99191.44;226921;1272;22542;-81
2024/03/20 23:16:38;;;;;;;153.00;73.30;;;;;;;4.08;67.34;99196.33;226982;1272;23105;-82